Station Historical Data
Daily Summary for January 29, 2012 Units:  English    Metric   Both
« Previous Day
Next Day »
Daily Weekly Monthly Yearly Custom
  High: Low: Average:
Temperature: 54.0 °F 24.4 °F 39.3 °F
Dew Point: 28.8 °F 16.8 °F 21.7 °F
Humidity: 81% 27% 52%
Wind Speed: 15.0mph 0.0mph 3mph
Wind Gust: 17.0mph - -
Wind- - SSW
Pressure: 30.45 in 30.33 in -
Precipitation: 0.00 in    
Historical Graphs
 
 
Tabular Data for January 29, 2012
Time Temperature Dew Point Pressure Wind Wind Speed Wind Gust Humidity Rainfall Rate (Hourly) Conditions
00:00 30.4 °F 17.0 °F 30.38 in Calm     57% 0.00 in
00:06 30.6 °F 17.2 °F 30.38 in Calm     57% 0.00 in
00:11 31.0 °F 17.2 °F 30.38 in Calm     56% 0.00 in
00:16 31.0 °F 17.2 °F 30.38 in Calm     56% 0.00 in
00:21 30.6 °F 16.8 °F 30.38 in Calm     56% 0.00 in
00:26 30.3 °F 17.3 °F 30.38 in Calm     58% 0.00 in
00:31 30.3 °F 21.7 °F 30.38 in Calm   1.0 mph 70% 0.00 in
00:36 29.8 °F 20.5 °F 30.38 in Calm     68% 0.00 in
00:41 29.5 °F 18.8 °F 30.38 in Calm     64% 0.00 in
00:46 29.1 °F 18.1 °F 30.38 in Calm     63% 0.00 in
00:51 28.5 °F 17.1 °F 30.38 in Calm     62% 0.00 in
00:56 28.6 °F 17.6 °F 30.38 in Calm     63% 0.00 in
01:01 28.6 °F 18.0 °F 30.38 in Calm     64% 0.00 in
01:06 28.3 °F 17.7 °F 30.38 in Calm     64% 0.00 in
01:11 27.8 °F 17.6 °F 30.37 in Calm     65% 0.00 in
01:16 28.1 °F 17.9 °F 30.38 in Calm     65% 0.00 in
01:21 28.8 °F 18.2 °F 30.37 in Calm     64% 0.00 in
01:26 29.1 °F 18.1 °F 30.37 in Calm     63% 0.00 in
01:31 29.2 °F 18.2 °F 30.37 in Calm     63% 0.00 in
01:36 28.9 °F 17.5 °F 30.38 in Calm     62% 0.00 in
01:41 28.8 °F 17.4 °F 30.37 in Calm     62% 0.00 in
01:46 29.3 °F 17.9 °F 30.37 in Calm   1.0 mph 62% 0.00 in
01:51 29.4 °F 17.6 °F 30.38 in Calm     61% 0.00 in
01:56 29.2 °F 17.4 °F 30.38 in Calm     61% 0.00 in
02:01 29.0 °F 17.2 °F 30.38 in Calm     61% 0.00 in
02:06 28.9 °F 17.5 °F 30.38 in Calm     62% 0.00 in
02:11 29.0 °F 17.6 °F 30.38 in Calm     62% 0.00 in
02:16 28.9 °F 17.5 °F 30.38 in Calm     62% 0.00 in
02:21 28.6 °F 17.6 °F 30.38 in Calm     63% 0.00 in
02:26 28.2 °F 18.0 °F 30.38 in Calm     65% 0.00 in
02:31 28.1 °F 18.2 °F 30.38 in Calm     66% 0.00 in
02:36 28.3 °F 18.1 °F 30.39 in Calm     65% 0.00 in
02:41 28.6 °F 18.0 °F 30.39 in Calm     64% 0.00 in
02:46 28.2 °F 17.6 °F 30.38 in Calm     64% 0.00 in
02:51 28.1 °F 17.9 °F 30.38 in Calm     65% 0.00 in
02:56 28.1 °F 17.9 °F 30.39 in Calm     65% 0.00 in
03:01 28.3 °F 17.7 °F 30.39 in Calm     64% 0.00 in
03:07 28.5 °F 17.9 °F 30.39 in Calm   1.0 mph 64% 0.00 in
03:12 28.6 °F 17.6 °F 30.39 in Calm     63% 0.00 in
03:17 28.5 °F 17.5 °F 30.39 in Calm     63% 0.00 in
03:22 28.2 °F 17.6 °F 30.40 in Calm     64% 0.00 in
03:27 27.7 °F 17.5 °F 30.40 in Calm     65% 0.00 in
03:32 27.6 °F 17.7 °F 30.40 in Calm     66% 0.00 in
03:37 27.9 °F 18.4 °F 30.40 in Calm     67% 0.00 in
03:42 28.0 °F 18.1 °F 30.40 in Calm     66% 0.00 in
03:47 27.2 °F 17.4 °F 30.40 in Calm     66% 0.00 in
03:52 26.7 °F 17.9 °F 30.40 in Calm     69% 0.00 in
03:57 27.3 °F 19.1 °F 30.40 in Calm   1.0 mph 71% 0.00 in
04:02 27.8 °F 20.3 °F 30.40 in SSE 1.0 mph 1.0 mph 73% 0.00 in
04:07 28.2 °F 20.0 °F 30.40 in SSE 1.0 mph 1.0 mph 71% 0.00 in
04:12 28.3 °F 20.1 °F 30.40 in Calm   1.0 mph 71% 0.00 in
04:17 28.4 °F 19.9 °F 30.40 in Calm   1.0 mph 70% 0.00 in
04:22 28.7 °F 19.5 °F 30.40 in Calm     68% 0.00 in
04:27 28.7 °F 19.8 °F 30.40 in SE 2.0 mph 2.0 mph 69% 0.00 in
04:32 28.6 °F 20.4 °F 30.39 in ESE 3.0 mph 3.0 mph 71% 0.00 in
04:37 28.6 °F 20.1 °F 30.39 in ESE 2.0 mph 3.0 mph 70% 0.00 in
04:42 29.0 °F 19.8 °F 30.40 in Calm   1.0 mph 68% 0.00 in
04:47 27.6 °F 20.1 °F 30.40 in WNW 1.0 mph 2.0 mph 73% 0.00 in
04:52 26.9 °F 19.7 °F 30.40 in Calm     74% 0.00 in
04:57 26.5 °F 19.4 °F 30.40 in Calm     74% 0.00 in
05:02 25.9 °F 19.1 °F 30.40 in Calm     75% 0.00 in
05:08 25.4 °F 19.2 °F 30.40 in Calm     77% 0.00 in
05:13 25.1 °F 18.9 °F 30.40 in Calm     77% 0.00 in
05:18 24.8 °F 19.2 °F 30.40 in Calm     79% 0.00 in
05:23 25.1 °F 19.8 °F 30.40 in WNW 1.0 mph 1.0 mph 80% 0.00 in
05:28 25.5 °F 19.6 °F 30.40 in Calm     78% 0.00 in
05:33 25.4 °F 19.5 °F 30.40 in Calm     78% 0.00 in
05:38 25.4 °F 19.2 °F 30.41 in Calm     77% 0.00 in
05:43 25.1 °F 18.6 °F 30.40 in Calm     76% 0.00 in
05:48 24.4 °F 18.2 °F 30.40 in Calm     77% 0.00 in
05:53 24.6 °F 19.0 °F 30.41 in Calm     79% 0.00 in
05:58 24.9 °F 19.3 °F 30.41 in Calm     79% 0.00 in
06:03 24.9 °F 19.0 °F 30.41 in Calm     78% 0.00 in
06:08 24.6 °F 18.7 °F 30.41 in Calm     78% 0.00 in
06:13 24.6 °F 19.0 °F 30.41 in Calm     79% 0.00 in
06:18 24.6 °F 19.0 °F 30.41 in Calm     79% 0.00 in
06:23 24.7 °F 19.1 °F 30.42 in Calm   1.0 mph 79% 0.00 in
06:28 24.7 °F 19.1 °F 30.42 in Calm     79% 0.00 in
06:33 24.6 °F 19.3 °F 30.41 in WNW 1.0 mph 1.0 mph 80% 0.00 in
06:38 24.7 °F 19.4 °F 30.42 in SE 1.0 mph 1.0 mph 80% 0.00 in
06:43 25.4 °F 19.5 °F 30.42 in SE 2.0 mph 2.0 mph 78% 0.00 in
06:48 25.9 °F 19.4 °F 30.41 in SE 1.0 mph 1.0 mph 76% 0.00 in
06:53 26.4 °F 19.6 °F 30.42 in SE 1.0 mph 1.0 mph 75% 0.00 in
06:58 26.4 °F 19.6 °F 30.42 in Calm     75% 0.00 in
07:03 25.8 °F 19.6 °F 30.42 in Calm     77% 0.00 in
07:08 25.2 °F 19.3 °F 30.42 in Calm     78% 0.00 in
07:13 24.9 °F 19.3 °F 30.42 in Calm     79% 0.00 in
07:18 25.0 °F 19.4 °F 30.42 in Calm   1.0 mph 79% 0.00 in
07:23 25.2 °F 19.3 °F 30.43 in SE 1.0 mph 1.0 mph 78% 0.00 in
07:28 25.4 °F 19.2 °F 30.43 in SE 1.0 mph 1.0 mph 77% 0.00 in
07:33 25.7 °F 19.8 °F 30.43 in Calm   1.0 mph 78% 0.00 in
07:38 25.9 °F 20.0 °F 30.43 in Calm   2.0 mph 78% 0.00 in
07:43 26.0 °F 20.1 °F 30.43 in Calm   1.0 mph 78% 0.00 in
07:48 26.0 °F 19.8 °F 30.44 in Calm     77% 0.00 in
07:53 25.8 °F 19.9 °F 30.44 in Calm   1.0 mph 78% 0.00 in
07:58 25.8 °F 20.5 °F 30.44 in Calm   1.0 mph 80% 0.00 in
08:03 25.9 °F 20.9 °F 30.44 in WSW 1.0 mph 2.0 mph 81% 0.00 in
08:08 26.3 °F 20.7 °F 30.44 in WSW 1.0 mph 1.0 mph 79% 0.00 in
08:13 27.1 °F 21.2 °F 30.44 in WSW 1.0 mph 2.0 mph 78% 0.00 in
08:18 27.6 °F 21.6 °F 30.44 in WSW 2.0 mph 2.0 mph 78% 0.00 in
08:23 27.9 °F 21.9 °F 30.44 in SW 1.0 mph 2.0 mph 78% 0.00 in
08:28 28.0 °F 21.7 °F 30.44 in WSW 1.0 mph 2.0 mph 77% 0.00 in
08:33 28.3 °F 21.7 °F 30.44 in SW 2.0 mph 2.0 mph 76% 0.00 in
08:38 28.5 °F 21.9 °F 30.44 in SW 2.0 mph 3.0 mph 76% 0.00 in
08:39 28.6 °F 22.0 °F 30.45 in SW 2.0 mph 3.0 mph 76% 0.00 in
08:44 29.0 °F 22.4 °F 30.44 in SW 3.0 mph 3.0 mph 76% 0.00 in
08:49 29.6 °F 23.0 °F 30.44 in SSW 1.0 mph 2.0 mph 76% 0.00 in
08:54 30.3 °F 23.7 °F 30.44 in SSW 2.0 mph 3.0 mph 76% 0.00 in
08:59 30.9 °F 23.6 °F 30.44 in SSE 1.0 mph 3.0 mph 74% 0.00 in
09:04 32.1 °F 24.8 °F 30.44 in SSE 3.0 mph 3.0 mph 74% 0.00 in
09:09 32.7 °F 25.0 °F 30.44 in South 1.0 mph 3.0 mph 73% 0.00 in
09:14 33.2 °F 25.5 °F 30.44 in SW 1.0 mph 2.0 mph 73% 0.00 in
09:19 33.6 °F 24.9 °F 30.44 in SSW 3.0 mph 3.0 mph 70% 0.00 in
09:24 34.3 °F 24.9 °F 30.44 in SSW 2.0 mph 3.0 mph 68% 0.00 in
09:29 35.0 °F 25.5 °F 30.44 in SW 3.0 mph 3.0 mph 68% 0.00 in
09:34 35.7 °F 26.5 °F 30.44 in SW 2.0 mph 3.0 mph 69% 0.00 in
09:39 36.1 °F 26.2 °F 30.44 in SW 3.0 mph 3.0 mph 67% 0.00 in
09:44 36.5 °F 25.9 °F 30.44 in SW 2.0 mph 5.0 mph 65% 0.00 in
09:49 36.9 °F 26.6 °F 30.44 in South 4.0 mph 4.0 mph 66% 0.00 in
09:54 37.3 °F 26.3 °F 30.44 in South 3.0 mph 6.0 mph 64% 0.00 in
09:59 37.8 °F 27.1 °F 30.43 in SSW 4.0 mph 5.0 mph 65% 0.00 in
10:04 38.2 °F 27.1 °F 30.43 in South 3.0 mph 6.0 mph 64% 0.00 in
10:10 38.9 °F 27.4 °F 30.43 in South 7.0 mph 8.0 mph 63% 0.00 in
10:15 39.3 °F 26.6 °F 30.43 in South 3.0 mph 8.0 mph 60% 0.00 in
10:20 39.9 °F 28.3 °F 30.43 in SW 5.0 mph 7.0 mph 63% 0.00 in
10:25 40.1 °F 26.1 °F 30.43 in SW 6.0 mph 8.0 mph 57% 0.00 in
10:30 40.8 °F 28.8 °F 30.43 in SSW 4.0 mph 6.0 mph 62% 0.00 in
10:35 41.2 °F 27.1 °F 30.43 in South 5.0 mph 9.0 mph 57% 0.00 in
10:40 41.1 °F 25.7 °F 30.44 in SW 4.0 mph 10.0 mph 54% 0.00 in
10:45 41.5 °F 26.5 °F 30.44 in SSW 4.0 mph 8.0 mph 55% 0.00 in
10:50 41.8 °F 26.8 °F 30.44 in SW 5.0 mph 9.0 mph 55% 0.00 in
10:55 42.2 °F 26.3 °F 30.44 in WSW 4.0 mph 7.0 mph 53% 0.00 in
11:00 42.5 °F 25.7 °F 30.44 in SSW 4.0 mph 7.0 mph 51% 0.00 in
11:05 42.8 °F 25.9 °F 30.44 in SW 3.0 mph 8.0 mph 51% 0.00 in
11:10 43.3 °F 25.4 °F 30.44 in SW 5.0 mph 10.0 mph 49% 0.00 in
11:15 43.5 °F 25.1 °F 30.44 in SW 5.0 mph 10.0 mph 48% 0.00 in
11:20 44.0 °F 26.6 °F 30.44 in SSE 5.0 mph 9.0 mph 50% 0.00 in
11:25 44.0 °F 25.6 °F 30.44 in SSW 6.0 mph 9.0 mph 48% 0.00 in
11:30 44.3 °F 26.9 °F 30.44 in SSW 4.0 mph 9.0 mph 50% 0.00 in
11:35 44.4 °F 25.5 °F 30.44 in SW 4.0 mph 9.0 mph 47% 0.00 in
11:40 44.8 °F 26.8 °F 30.44 in South 10.0 mph 10.0 mph 49% 0.00 in
11:45 45.1 °F 26.1 °F 30.44 in SSW 8.0 mph 12.0 mph 47% 0.00 in
11:50 45.1 °F 25.0 °F 30.43 in SSW 6.0 mph 9.0 mph 45% 0.00 in
11:55 45.5 °F 24.3 °F 30.43 in SSW 4.0 mph 11.0 mph 43% 0.00 in
12:00 45.8 °F 25.1 °F 30.43 in SW 9.0 mph 12.0 mph 44% 0.00 in
12:05 46.2 °F 25.5 °F 30.43 in SW 6.0 mph 12.0 mph 44% 0.00 in
12:10 46.2 °F 24.4 °F 30.43 in WSW 3.0 mph 8.0 mph 42% 0.00 in
12:15 46.8 °F 24.9 °F 30.42 in SSW 4.0 mph 8.0 mph 42% 0.00 in
12:20 47.0 °F 23.3 °F 30.42 in SW 4.0 mph 9.0 mph 39% 0.00 in
12:25 47.0 °F 25.1 °F 30.42 in SW 9.0 mph 10.0 mph 42% 0.00 in
12:30 47.4 °F 25.5 °F 30.42 in South 3.0 mph 7.0 mph 42% 0.00 in
12:35 47.8 °F 25.8 °F 30.41 in WSW 3.0 mph 9.0 mph 42% 0.00 in
12:36 47.9 °F 24.1 °F 30.41 in South 4.0 mph 9.0 mph 39% 0.00 in
12:41 48.0 °F 24.2 °F 30.41 in SSW 5.0 mph 9.0 mph 39% 0.00 in
12:46 48.3 °F 25.1 °F 30.41 in SSW 5.0 mph 6.0 mph 40% 0.00 in
12:51 48.6 °F 24.2 °F 30.41 in SSE 6.0 mph 11.0 mph 38% 0.00 in
12:56 48.9 °F 25.0 °F 30.40 in South 4.0 mph 8.0 mph 39% 0.00 in
13:01 49.7 °F 25.1 °F 30.40 in South 8.0 mph 9.0 mph 38% 0.00 in
13:06 49.7 °F 23.9 °F 30.40 in SW 11.0 mph 11.0 mph 36% 0.00 in
13:11 49.7 °F 22.5 °F 30.39 in WSW 5.0 mph 9.0 mph 34% 0.00 in
13:16 50.0 °F 22.0 °F 30.39 in SW 10.0 mph 10.0 mph 33% 0.00 in
13:21 50.3 °F 20.8 °F 30.39 in WSW 6.0 mph 11.0 mph 31% 0.00 in
13:26 50.7 °F 21.2 °F 30.39 in SSW 10.0 mph 12.0 mph 31% 0.00 in
13:31 50.7 °F 21.9 °F 30.39 in WSW 5.0 mph 13.0 mph 32% 0.00 in
13:36 50.8 °F 22.8 °F 30.38 in SSW 8.0 mph 13.0 mph 33% 0.00 in
13:41 50.9 °F 21.4 °F 30.38 in WSW 8.0 mph 12.0 mph 31% 0.00 in
13:46 51.1 °F 23.0 °F 30.38 in SW 11.0 mph 16.0 mph 33% 0.00 in
13:51 51.3 °F 23.9 °F 30.38 in SW 6.0 mph 12.0 mph 34% 0.00 in
13:56 51.4 °F 22.5 °F 30.38 in SW 8.0 mph 13.0 mph 32% 0.00 in
14:01 51.9 °F 23.7 °F 30.38 in SSW 5.0 mph 9.0 mph 33% 0.00 in
14:06 52.1 °F 21.6 °F 30.38 in WSW 15.0 mph 15.0 mph 30% 0.00 in
14:11 52.3 °F 23.3 °F 30.37 in SW 9.0 mph 11.0 mph 32% 0.00 in
14:16 52.6 °F 21.3 °F 30.37 in SW 8.0 mph 15.0 mph 29% 0.00 in
14:21 52.4 °F 20.3 °F 30.37 in WSW 8.0 mph 16.0 mph 28% 0.00 in
14:26 52.5 °F 19.5 °F 30.36 in SW 9.0 mph 17.0 mph 27% 0.00 in
14:31 52.7 °F 22.9 °F 30.37 in SW 12.0 mph 15.0 mph 31% 0.00 in
14:36 52.5 °F 22.0 °F 30.37 in West 6.0 mph 12.0 mph 30% 0.00 in
14:41 52.6 °F 20.4 °F 30.37 in WSW 6.0 mph 12.0 mph 28% 0.00 in
14:46 52.6 °F 21.3 °F 30.36 in SW 9.0 mph 17.0 mph 29% 0.00 in
14:51 52.4 °F 21.1 °F 30.36 in WSW 10.0 mph 14.0 mph 29% 0.00 in
14:57 52.7 °F 22.9 °F 30.36 in SW 12.0 mph 13.0 mph 31% 0.00 in
15:02 52.8 °F 23.0 °F 30.36 in SW 11.0 mph 14.0 mph 31% 0.00 in
15:07 52.7 °F 22.9 °F 30.36 in WSW 10.0 mph 16.0 mph 31% 0.00 in
15:11 52.9 °F 19.9 °F 30.36 in WSW 9.0 mph 12.0 mph 27% 0.00 in
15:17 53.3 °F 22.7 °F 30.36 in West 6.0 mph 8.0 mph 30% 0.00 in
15:22 53.2 °F 21.8 °F 30.36 in SW 8.0 mph 16.0 mph 29% 0.00 in
15:27 53.3 °F 22.7 °F 30.36 in SSW 5.0 mph 11.0 mph 30% 0.00 in
15:32 53.4 °F 22.0 °F 30.35 in WSW 8.0 mph 13.0 mph 29% 0.00 in
15:37 53.5 °F 22.9 °F 30.36 in SW 12.0 mph 13.0 mph 30% 0.00 in
15:42 53.4 °F 23.5 °F 30.35 in SW 8.0 mph 14.0 mph 31% 0.00 in
15:47 53.4 °F 23.5 °F 30.35 in SSW 7.0 mph 11.0 mph 31% 0.00 in
15:52 53.4 °F 22.0 °F 30.35 in SW 8.0 mph 13.0 mph 29% 0.00 in
15:57 53.7 °F 22.2 °F 30.35 in West 7.0 mph 12.0 mph 29% 0.00 in
16:02 53.9 °F 22.4 °F 30.35 in WNW 5.0 mph 11.0 mph 29% 0.00 in
16:07 53.8 °F 22.3 °F 30.35 in SW 8.0 mph 14.0 mph 29% 0.00 in
16:12 54.0 °F 23.3 °F 30.35 in WSW 15.0 mph 15.0 mph 30% 0.00 in
16:17 53.9 °F 20.7 °F 30.35 in West 8.0 mph 11.0 mph 27% 0.00 in
16:22 53.6 °F 21.3 °F 30.35 in WSW 6.0 mph 12.0 mph 28% 0.00 in
16:27 53.4 °F 21.1 °F 30.35 in WSW 13.0 mph 15.0 mph 28% 0.00 in
16:32 53.5 °F 21.2 °F 30.35 in WSW 7.0 mph 9.0 mph 28% 0.00 in
16:37 53.4 °F 21.1 °F 30.35 in WSW 8.0 mph 14.0 mph 28% 0.00 in
16:42 53.4 °F 20.3 °F 30.35 in WSW 9.0 mph 13.0 mph 27% 0.00 in
16:47 53.5 °F 22.0 °F 30.35 in West 6.0 mph 10.0 mph 29% 0.00 in
16:52 53.5 °F 22.9 °F 30.35 in WSW 11.0 mph 11.0 mph 30% 0.00 in
16:57 53.2 °F 21.0 °F 30.35 in WSW 8.0 mph 13.0 mph 28% 0.00 in
17:02 53.1 °F 23.3 °F 30.35 in SW 6.0 mph 10.0 mph 31% 0.00 in
17:07 53.0 °F 21.6 °F 30.35 in SW 5.0 mph 11.0 mph 29% 0.00 in
17:12 52.9 °F 22.3 °F 30.35 in SW 5.0 mph 10.0 mph 30% 0.00 in
17:17 52.8 °F 21.4 °F 30.35 in West 3.0 mph 13.0 mph 29% 0.00 in
17:22 52.6 °F 22.1 °F 30.34 in WSW 6.0 mph 9.0 mph 30% 0.00 in
17:27 52.5 °F 22.0 °F 30.34 in West 3.0 mph 11.0 mph 30% 0.00 in
17:33 52.3 °F 21.8 °F 30.34 in WSW 9.0 mph 9.0 mph 30% 0.00 in
17:38 52.0 °F 21.5 °F 30.34 in WSW 6.0 mph 9.0 mph 30% 0.00 in
17:43 51.9 °F 21.5 °F 30.34 in West 7.0 mph 10.0 mph 30% 0.00 in
17:48 51.5 °F 21.9 °F 30.34 in SSW 4.0 mph 8.0 mph 31% 0.00 in
17:53 51.2 °F 21.6 °F 30.34 in WSW 5.0 mph 7.0 mph 31% 0.00 in
17:58 50.9 °F 22.1 °F 30.34 in SW 5.0 mph 8.0 mph 32% 0.00 in
18:03 50.6 °F 22.6 °F 30.34 in SW 5.0 mph 5.0 mph 33% 0.00 in
18:08 50.3 °F 21.6 °F 30.34 in SW 6.0 mph 6.0 mph 32% 0.00 in
18:13 49.5 °F 21.6 °F 30.34 in SW 4.0 mph 5.0 mph 33% 0.00 in
18:18 48.9 °F 22.5 °F 30.34 in SW 2.0 mph 4.0 mph 35% 0.00 in
18:23 48.1 °F 22.4 °F 30.34 in SSW 3.0 mph 6.0 mph 36% 0.00 in
18:28 47.9 °F 21.6 °F 30.34 in SSE 1.0 mph 3.0 mph 35% 0.00 in
18:33 47.7 °F 22.1 °F 30.34 in SSE 2.0 mph 2.0 mph 36% 0.00 in
18:38 47.5 °F 21.9 °F 30.34 in South 2.0 mph 3.0 mph 36% 0.00 in
18:43 47.2 °F 21.6 °F 30.34 in South 2.0 mph 2.0 mph 36% 0.00 in
18:48 47.1 °F 21.5 °F 30.34 in SSW 2.0 mph 3.0 mph 36% 0.00 in
18:53 47.1 °F 21.5 °F 30.34 in South 2.0 mph 4.0 mph 36% 0.00 in
18:58 46.9 °F 21.4 °F 30.33 in South 2.0 mph 3.0 mph 36% 0.00 in
19:03 46.7 °F 21.8 °F 30.33 in SSW 2.0 mph 3.0 mph 37% 0.00 in
19:08 46.5 °F 21.6 °F 30.33 in SSE 2.0 mph 4.0 mph 37% 0.00 in
19:13 46.3 °F 22.1 °F 30.34 in SSW 2.0 mph 4.0 mph 38% 0.00 in
19:18 46.2 °F 22.0 °F 30.34 in SSW 2.0 mph 4.0 mph 38% 0.00 in
19:23 46.4 °F 22.2 °F 30.34 in SSW 3.0 mph 5.0 mph 38% 0.00 in
19:28 46.4 °F 21.6 °F 30.34 in SE 1.0 mph 3.0 mph 37% 0.00 in
19:33 46.2 °F 22.6 °F 30.34 in South 2.0 mph 3.0 mph 39% 0.00 in
19:38 46.0 °F 21.8 °F 30.34 in SSE 2.0 mph 4.0 mph 38% 0.00 in
19:43 45.8 °F 22.3 °F 30.34 in South 2.0 mph 3.0 mph 39% 0.00 in
19:48 45.7 °F 22.2 °F 30.35 in SSE 2.0 mph 3.0 mph 39% 0.00 in
19:53 45.6 °F 22.1 °F 30.34 in South 2.0 mph 4.0 mph 39% 0.00 in
19:58 45.6 °F 22.1 °F 30.34 in South 3.0 mph 3.0 mph 39% 0.00 in
20:03 45.5 °F 22.6 °F 30.34 in SSE 4.0 mph 5.0 mph 40% 0.00 in
20:08 45.4 °F 22.5 °F 30.34 in SSW 3.0 mph 4.0 mph 40% 0.00 in
20:13 45.4 °F 22.5 °F 30.34 in SSW 2.0 mph 5.0 mph 40% 0.00 in
20:19 45.3 °F 22.4 °F 30.34 in South 2.0 mph 4.0 mph 40% 0.00 in
20:24 45.1 °F 22.2 °F 30.34 in SSE 4.0 mph 5.0 mph 40% 0.00 in
20:29 45.1 °F 22.8 °F 30.34 in SSE 4.0 mph 6.0 mph 41% 0.00 in
20:34 45.0 °F 22.7 °F 30.34 in SSW 3.0 mph 5.0 mph 41% 0.00 in
20:39 44.7 °F 23.0 °F 30.34 in SSW 3.0 mph 4.0 mph 42% 0.00 in
20:44 44.6 °F 23.5 °F 30.34 in South 4.0 mph 5.0 mph 43% 0.00 in
20:49 44.3 °F 23.8 °F 30.33 in SSE 3.0 mph 4.0 mph 44% 0.00 in
20:54 43.9 °F 23.4 °F 30.34 in SSE 2.0 mph 3.0 mph 44% 0.00 in
20:59 43.4 °F 23.5 °F 30.34 in SE 3.0 mph 3.0 mph 45% 0.00 in
21:04 42.9 °F 23.6 °F 30.34 in SSE 2.0 mph 3.0 mph 46% 0.00 in
21:09 42.7 °F 23.9 °F 30.34 in SSE 2.0 mph 3.0 mph 47% 0.00 in
21:14 42.7 °F 23.4 °F 30.34 in SSE 1.0 mph 3.0 mph 46% 0.00 in
21:19 42.9 °F 23.0 °F 30.34 in South 2.0 mph 3.0 mph 45% 0.00 in
21:24 43.0 °F 23.1 °F 30.34 in SSE 2.0 mph 4.0 mph 45% 0.00 in
21:29 43.1 °F 23.2 °F 30.34 in SSE 2.0 mph 3.0 mph 45% 0.00 in
21:34 43.2 °F 22.8 °F 30.34 in South 2.0 mph 4.0 mph 44% 0.00 in
21:39 43.4 °F 23.0 °F 30.34 in SSE 2.0 mph 3.0 mph 44% 0.00 in
21:44 43.2 °F 22.8 °F 30.34 in SSE 1.0 mph 3.0 mph 44% 0.00 in
21:49 43.1 °F 22.7 °F 30.34 in SSW 1.0 mph 3.0 mph 44% 0.00 in
21:54 43.0 °F 22.6 °F 30.34 in SSE 1.0 mph 2.0 mph 44% 0.00 in
21:59 42.8 °F 23.0 °F 30.34 in SSE 1.0 mph 2.0 mph 45% 0.00 in
22:04 42.7 °F 22.9 °F 30.34 in SSE 2.0 mph 2.0 mph 45% 0.00 in
22:09 42.7 °F 22.9 °F 30.34 in South 2.0 mph 3.0 mph 45% 0.00 in
22:14 42.7 °F 22.9 °F 30.34 in South 2.0 mph 3.0 mph 45% 0.00 in
22:19 42.8 °F 23.0 °F 30.35 in South 2.0 mph 4.0 mph 45% 0.00 in
22:24 42.7 °F 22.9 °F 30.34 in SSE 2.0 mph 3.0 mph 45% 0.00 in
22:29 42.5 °F 22.7 °F 30.34 in SSW 2.0 mph 2.0 mph 45% 0.00 in
22:34 42.4 °F 23.1 °F 30.35 in SSW 2.0 mph 2.0 mph 46% 0.00 in
22:39 42.2 °F 22.9 °F 30.35 in SSW 1.0 mph 2.0 mph 46% 0.00 in
22:44 42.0 °F 22.7 °F 30.35 in SSW 2.0 mph 2.0 mph 46% 0.00 in
22:49 42.0 °F 22.7 °F 30.35 in SSW 1.0 mph 2.0 mph 46% 0.00 in
22:54 41.9 °F 23.2 °F 30.35 in SSE 2.0 mph 2.0 mph 47% 0.00 in
22:59 41.9 °F 23.2 °F 30.35 in South 2.0 mph 3.0 mph 47% 0.00 in
23:05 41.8 °F 23.1 °F 30.35 in SSW 3.0 mph 4.0 mph 47% 0.00 in
23:10 42.1 °F 22.8 °F 30.35 in SSE 2.0 mph 4.0 mph 46% 0.00 in
23:15 42.1 °F 22.8 °F 30.35 in South 2.0 mph 4.0 mph 46% 0.00 in
23:20 42.1 °F 22.8 °F 30.35 in SSW 2.0 mph 3.0 mph 46% 0.00 in
23:25 41.9 °F 23.2 °F 30.35 in SSE 1.0 mph 2.0 mph 47% 0.00 in
23:30 41.9 °F 23.2 °F 30.35 in South 2.0 mph 2.0 mph 47% 0.00 in
23:36 41.8 °F 23.1 °F 30.35 in SSW 1.0 mph 2.0 mph 47% 0.00 in
23:41 41.6 °F 22.9 °F 30.35 in SSW 2.0 mph 2.0 mph 47% 0.00 in
23:46 41.4 °F 23.2 °F 30.35 in SSW 1.0 mph 2.0 mph 48% 0.00 in
23:51 41.3 °F 23.1 °F 30.35 in SW 1.0 mph 3.0 mph 48% 0.00 in
23:56 41.1 °F 22.9 °F 30.35 in SSW 1.0 mph 2.0 mph 48% 0.00 in
Compliments of Weather Underground